sensor_id;sensor_type;location;lat;lon;timestamp;P1;durP1;ratioP1;P2;durP2;ratioP2
59336;SDS011;45115;52.002;4.686;2024-02-04T00:00:54;28.60;;;11.55;;
59336;SDS011;45115;52.002;4.686;2024-02-04T00:03:20;29.30;;;11.27;;
59336;SDS011;45115;52.002;4.686;2024-02-04T00:05:48;28.65;;;11.13;;
59336;SDS011;45115;52.002;4.686;2024-02-04T00:08:15;26.27;;;11.82;;
59336;SDS011;45115;52.002;4.686;2024-02-04T00:10:42;27.58;;;12.02;;
59336;SDS011;45115;52.002;4.686;2024-02-04T00:13:09;26.48;;;11.43;;
59336;SDS011;45115;52.002;4.686;2024-02-04T00:15:35;28.73;;;10.75;;
59336;SDS011;45115;52.002;4.686;2024-02-04T00:18:04;24.63;;;9.35;;
59336;SDS011;45115;52.002;4.686;2024-02-04T00:20:31;23.10;;;9.48;;
59336;SDS011;45115;52.002;4.686;2024-02-04T00:22:58;27.98;;;11.20;;
59336;SDS011;45115;52.002;4.686;2024-02-04T00:25:25;25.95;;;10.25;;
59336;SDS011;45115;52.002;4.686;2024-02-04T00:27:54;21.70;;;9.68;;
59336;SDS011;45115;52.002;4.686;2024-02-04T00:30:21;30.90;;;10.02;;
59336;SDS011;45115;52.002;4.686;2024-02-04T00:32:47;24.05;;;9.50;;
59336;SDS011;45115;52.002;4.686;2024-02-04T00:35:15;26.05;;;10.10;;
59336;SDS011;45115;52.002;4.686;2024-02-04T00:37:42;20.98;;;8.60;;
59336;SDS011;45115;52.002;4.686;2024-02-04T00:40:09;19.98;;;8.15;;
59336;SDS011;45115;52.002;4.686;2024-02-04T00:42:37;23.88;;;9.20;;
59336;SDS011;45115;52.002;4.686;2024-02-04T00:45:04;22.73;;;8.65;;
59336;SDS011;45115;52.002;4.686;2024-02-04T00:47:31;20.77;;;8.40;;
59336;SDS011;45115;52.002;4.686;2024-02-04T00:49:57;18.25;;;8.07;;
59336;SDS011;45115;52.002;4.686;2024-02-04T00:52:25;21.05;;;9.13;;
59336;SDS011;45115;52.002;4.686;2024-02-04T00:54:52;18.02;;;8.70;;
59336;SDS011;45115;52.002;4.686;2024-02-04T00:57:18;21.88;;;9.88;;
59336;SDS011;45115;52.002;4.686;2024-02-04T00:59:45;20.50;;;8.70;;
59336;SDS011;45115;52.002;4.686;2024-02-04T01:02:12;21.98;;;9.23;;
59336;SDS011;45115;52.002;4.686;2024-02-04T01:04:38;22.80;;;9.75;;
59336;SDS011;45115;52.002;4.686;2024-02-04T01:07:05;25.60;;;9.95;;
59336;SDS011;45115;52.002;4.686;2024-02-04T01:09:33;21.50;;;9.05;;
59336;SDS011;45115;52.002;4.686;2024-02-04T01:12:00;24.73;;;9.15;;
59336;SDS011;45115;52.002;4.686;2024-02-04T01:14:26;22.80;;;10.20;;
59336;SDS011;45115;52.002;4.686;2024-02-04T01:16:53;27.15;;;10.77;;
59336;SDS011;45115;52.002;4.686;2024-02-04T01:19:19;23.50;;;10.23;;
59336;SDS011;45115;52.002;4.686;2024-02-04T01:21:46;24.27;;;10.57;;
59336;SDS011;45115;52.002;4.686;2024-02-04T01:24:13;32.22;;;11.85;;
59336;SDS011;45115;52.002;4.686;2024-02-04T01:26:41;23.15;;;11.93;;
59336;SDS011;45115;52.002;4.686;2024-02-04T01:29:07;25.63;;;11.45;;
59336;SDS011;45115;52.002;4.686;2024-02-04T01:31:34;27.08;;;10.70;;
59336;SDS011;45115;52.002;4.686;2024-02-04T01:34:00;29.45;;;11.25;;
59336;SDS011;45115;52.002;4.686;2024-02-04T01:36:27;25.33;;;11.35;;
59336;SDS011;45115;52.002;4.686;2024-02-04T01:38:54;28.08;;;10.65;;
59336;SDS011;45115;52.002;4.686;2024-02-04T01:41:21;27.35;;;11.77;;
59336;SDS011;45115;52.002;4.686;2024-02-04T01:43:51;26.00;;;11.75;;
59336;SDS011;45115;52.002;4.686;2024-02-04T01:46:18;24.73;;;11.52;;
59336;SDS011;45115;52.002;4.686;2024-02-04T01:48:45;27.90;;;12.77;;
59336;SDS011;45115;52.002;4.686;2024-02-04T01:51:12;27.77;;;11.98;;
59336;SDS011;45115;52.002;4.686;2024-02-04T01:53:40;26.33;;;12.57;;
59336;SDS011;45115;52.002;4.686;2024-02-04T01:56:12;26.10;;;11.02;;
59336;SDS011;45115;52.002;4.686;2024-02-04T01:58:39;31.05;;;13.15;;
59336;SDS011;45115;52.002;4.686;2024-02-04T02:01:07;30.02;;;13.23;;
59336;SDS011;45115;52.002;4.686;2024-02-04T02:03:35;29.70;;;13.18;;
59336;SDS011;45115;52.002;4.686;2024-02-04T02:06:02;25.20;;;12.25;;
59336;SDS011;45115;52.002;4.686;2024-02-04T02:08:29;28.13;;;11.77;;
59336;SDS011;45115;52.002;4.686;2024-02-04T02:11:00;27.20;;;11.93;;
59336;SDS011;45115;52.002;4.686;2024-02-04T02:13:32;22.15;;;10.40;;
59336;SDS011;45115;52.002;4.686;2024-02-04T02:16:03;22.17;;;10.20;;
59336;SDS011;45115;52.002;4.686;2024-02-04T02:18:40;25.52;;;11.27;;
59336;SDS011;45115;52.002;4.686;2024-02-04T02:21:16;24.70;;;10.27;;
59336;SDS011;45115;52.002;4.686;2024-02-04T02:23:54;25.10;;;9.45;;
59336;SDS011;45115;52.002;4.686;2024-02-04T02:26:31;16.98;;;8.35;;
59336;SDS011;45115;52.002;4.686;2024-02-04T02:29:03;22.55;;;9.50;;
59336;SDS011;45115;52.002;4.686;2024-02-04T02:31:30;23.65;;;10.18;;
59336;SDS011;45115;52.002;4.686;2024-02-04T02:33:57;19.00;;;9.52;;
59336;SDS011;45115;52.002;4.686;2024-02-04T02:36:24;16.85;;;8.98;;
59336;SDS011;45115;52.002;4.686;2024-02-04T02:41:25;22.35;;;8.38;;
59336;SDS011;45115;52.002;4.686;2024-02-04T02:43:57;17.83;;;7.97;;
59336;SDS011;45115;52.002;4.686;2024-02-04T02:46:26;22.47;;;8.43;;
59336;SDS011;45115;52.002;4.686;2024-02-04T02:48:54;18.40;;;7.95;;
59336;SDS011;45115;52.002;4.686;2024-02-04T02:51:21;24.55;;;9.13;;
59336;SDS011;45115;52.002;4.686;2024-02-04T02:53:47;23.83;;;9.13;;
59336;SDS011;45115;52.002;4.686;2024-02-04T02:56:14;21.25;;;8.80;;
59336;SDS011;45115;52.002;4.686;2024-02-04T02:58:41;19.02;;;7.93;;
59336;SDS011;45115;52.002;4.686;2024-02-04T03:01:09;19.65;;;8.13;;
59336;SDS011;45115;52.002;4.686;2024-02-04T03:03:36;23.30;;;8.38;;
59336;SDS011;45115;52.002;4.686;2024-02-04T03:06:03;21.73;;;9.48;;
59336;SDS011;45115;52.002;4.686;2024-02-04T03:08:30;22.80;;;8.48;;
59336;SDS011;45115;52.002;4.686;2024-02-04T03:10:57;21.60;;;8.77;;
59336;SDS011;45115;52.002;4.686;2024-02-04T03:13:24;21.13;;;8.60;;
59336;SDS011;45115;52.002;4.686;2024-02-04T03:15:50;21.85;;;9.10;;
59336;SDS011;45115;52.002;4.686;2024-02-04T03:18:19;22.05;;;8.57;;
59336;SDS011;45115;52.002;4.686;2024-02-04T03:20:45;23.50;;;8.90;;
59336;SDS011;45115;52.002;4.686;2024-02-04T03:23:12;18.30;;;9.10;;
59336;SDS011;45115;52.002;4.686;2024-02-04T03:25:39;20.90;;;9.10;;
59336;SDS011;45115;52.002;4.686;2024-02-04T03:28:06;23.30;;;9.65;;
59336;SDS011;45115;52.002;4.686;2024-02-04T03:30:33;23.98;;;10.82;;
59336;SDS011;45115;52.002;4.686;2024-02-04T03:32:59;26.52;;;11.07;;
59336;SDS011;45115;52.002;4.686;2024-02-04T03:35:28;25.00;;;11.20;;
59336;SDS011;45115;52.002;4.686;2024-02-04T03:37:54;26.77;;;12.40;;
59336;SDS011;45115;52.002;4.686;2024-02-04T03:40:21;22.73;;;11.25;;
59336;SDS011;45115;52.002;4.686;2024-02-04T03:42:50;25.08;;;12.32;;
59336;SDS011;45115;52.002;4.686;2024-02-04T03:45:17;24.75;;;11.10;;
59336;SDS011;45115;52.002;4.686;2024-02-04T03:47:43;23.23;;;11.60;;
59336;SDS011;45115;52.002;4.686;2024-02-04T03:50:11;27.73;;;12.27;;
59336;SDS011;45115;52.002;4.686;2024-02-04T03:52:39;22.92;;;11.65;;
59336;SDS011;45115;52.002;4.686;2024-02-04T03:55:06;24.40;;;11.50;;
59336;SDS011;45115;52.002;4.686;2024-02-04T03:57:33;24.52;;;10.85;;
59336;SDS011;45115;52.002;4.686;2024-02-04T03:59:59;28.52;;;11.38;;
59336;SDS011;45115;52.002;4.686;2024-02-04T04:02:26;25.00;;;12.10;;
59336;SDS011;45115;52.002;4.686;2024-02-04T04:04:53;29.83;;;13.45;;
59336;SDS011;45115;52.002;4.686;2024-02-04T04:07:19;29.98;;;12.32;;
59336;SDS011;45115;52.002;4.686;2024-02-04T04:09:48;25.05;;;11.25;;
59336;SDS011;45115;52.002;4.686;2024-02-04T04:12:14;26.15;;;12.25;;
59336;SDS011;45115;52.002;4.686;2024-02-04T04:14:41;26.45;;;12.88;;
59336;SDS011;45115;52.002;4.686;2024-02-04T04:17:07;30.52;;;13.65;;
59336;SDS011;45115;52.002;4.686;2024-02-04T04:19:34;25.75;;;12.13;;
59336;SDS011;45115;52.002;4.686;2024-02-04T04:22:02;29.88;;;13.18;;
59336;SDS011;45115;52.002;4.686;2024-02-04T04:24:29;26.05;;;13.10;;
59336;SDS011;45115;52.002;4.686;2024-02-04T04:26:57;29.35;;;12.95;;
59336;SDS011;45115;52.002;4.686;2024-02-04T04:29:23;26.27;;;13.65;;
59336;SDS011;45115;52.002;4.686;2024-02-04T04:31:51;27.20;;;13.00;;
59336;SDS011;45115;52.002;4.686;2024-02-04T04:34:18;33.20;;;14.95;;
59336;SDS011;45115;52.002;4.686;2024-02-04T04:36:44;26.42;;;12.27;;
59336;SDS011;45115;52.002;4.686;2024-02-04T04:39:11;27.42;;;12.93;;
59336;SDS011;45115;52.002;4.686;2024-02-04T04:41:39;32.80;;;13.18;;
59336;SDS011;45115;52.002;4.686;2024-02-04T04:44:07;31.67;;;14.20;;
59336;SDS011;45115;52.002;4.686;2024-02-04T04:46:37;31.98;;;13.48;;
59336;SDS011;45115;52.002;4.686;2024-02-04T04:49:04;30.13;;;14.52;;
59336;SDS011;45115;52.002;4.686;2024-02-04T04:51:31;31.27;;;13.18;;
59336;SDS011;45115;52.002;4.686;2024-02-04T04:53:58;29.80;;;12.68;;
59336;SDS011;45115;52.002;4.686;2024-02-04T04:56:27;25.67;;;12.88;;
59336;SDS011;45115;52.002;4.686;2024-02-04T04:58:53;28.60;;;12.07;;
59336;SDS011;45115;52.002;4.686;2024-02-04T05:01:21;26.23;;;12.20;;
59336;SDS011;45115;52.002;4.686;2024-02-04T05:03:48;28.48;;;13.55;;
59336;SDS011;45115;52.002;4.686;2024-02-04T05:06:15;27.42;;;13.98;;
59336;SDS011;45115;52.002;4.686;2024-02-04T05:08:41;29.90;;;13.05;;
59336;SDS011;45115;52.002;4.686;2024-02-04T05:11:08;23.80;;;11.73;;
59336;SDS011;45115;52.002;4.686;2024-02-04T05:13:34;24.10;;;11.48;;
59336;SDS011;45115;52.002;4.686;2024-02-04T05:16:04;30.02;;;12.48;;
59336;SDS011;45115;52.002;4.686;2024-02-04T05:18:33;27.67;;;12.32;;
59336;SDS011;45115;52.002;4.686;2024-02-04T05:21:00;24.10;;;11.30;;
59336;SDS011;45115;52.002;4.686;2024-02-04T05:23:27;25.35;;;12.13;;
59336;SDS011;45115;52.002;4.686;2024-02-04T05:25:54;25.58;;;12.00;;
59336;SDS011;45115;52.002;4.686;2024-02-04T05:28:20;24.83;;;11.57;;
59336;SDS011;45115;52.002;4.686;2024-02-04T05:30:47;23.55;;;11.45;;
59336;SDS011;45115;52.002;4.686;2024-02-04T05:33:14;26.73;;;11.48;;
59336;SDS011;45115;52.002;4.686;2024-02-04T05:35:42;26.70;;;12.00;;
59336;SDS011;45115;52.002;4.686;2024-02-04T05:38:09;30.17;;;10.88;;
59336;SDS011;45115;52.002;4.686;2024-02-04T05:40:36;26.20;;;11.70;;
59336;SDS011;45115;52.002;4.686;2024-02-04T05:43:02;24.90;;;11.73;;
59336;SDS011;45115;52.002;4.686;2024-02-04T05:45:31;28.88;;;11.30;;
59336;SDS011;45115;52.002;4.686;2024-02-04T05:47:58;25.10;;;11.00;;
59336;SDS011;45115;52.002;4.686;2024-02-04T05:50:25;25.20;;;10.60;;
59336;SDS011;45115;52.002;4.686;2024-02-04T05:52:53;27.75;;;10.50;;
59336;SDS011;45115;52.002;4.686;2024-02-04T05:55:20;20.77;;;8.88;;
59336;SDS011;45115;52.002;4.686;2024-02-04T05:57:47;23.90;;;8.00;;
59336;SDS011;45115;52.002;4.686;2024-02-04T06:00:14;18.42;;;6.97;;
59336;SDS011;45115;52.002;4.686;2024-02-04T06:02:41;18.98;;;7.32;;
59336;SDS011;45115;52.002;4.686;2024-02-04T06:05:08;20.17;;;7.47;;
59336;SDS011;45115;52.002;4.686;2024-02-04T06:07:35;21.23;;;6.75;;
59336;SDS011;45115;52.002;4.686;2024-02-04T06:10:04;17.80;;;6.57;;
59336;SDS011;45115;52.002;4.686;2024-02-04T06:12:31;16.30;;;6.35;;
59336;SDS011;45115;52.002;4.686;2024-02-04T06:14:58;16.20;;;6.93;;
59336;SDS011;45115;52.002;4.686;2024-02-04T06:17:24;19.38;;;7.40;;
59336;SDS011;45115;52.002;4.686;2024-02-04T06:19:51;16.42;;;7.10;;
59336;SDS011;45115;52.002;4.686;2024-02-04T06:22:18;17.98;;;7.35;;
59336;SDS011;45115;52.002;4.686;2024-02-04T06:24:45;17.08;;;7.95;;
59336;SDS011;45115;52.002;4.686;2024-02-04T06:27:13;19.98;;;8.40;;
59336;SDS011;45115;52.002;4.686;2024-02-04T06:29:40;18.75;;;8.48;;
59336;SDS011;45115;52.002;4.686;2024-02-04T06:32:06;17.77;;;8.30;;
59336;SDS011;45115;52.002;4.686;2024-02-04T06:34:33;19.65;;;9.05;;
59336;SDS011;45115;52.002;4.686;2024-02-04T06:37:00;20.80;;;9.35;;
59336;SDS011;45115;52.002;4.686;2024-02-04T06:39:26;18.58;;;8.50;;
59336;SDS011;45115;52.002;4.686;2024-02-04T06:41:53;19.17;;;9.65;;
59336;SDS011;45115;52.002;4.686;2024-02-04T06:44:21;20.33;;;8.02;;
59336;SDS011;45115;52.002;4.686;2024-02-04T06:46:48;20.13;;;7.55;;
59336;SDS011;45115;52.002;4.686;2024-02-04T06:49:14;18.02;;;7.50;;
59336;SDS011;45115;52.002;4.686;2024-02-04T06:51:43;22.60;;;9.02;;
59336;SDS011;45115;52.002;4.686;2024-02-04T06:54:10;23.60;;;8.00;;
59336;SDS011;45115;52.002;4.686;2024-02-04T06:56:36;19.92;;;7.40;;
59336;SDS011;45115;52.002;4.686;2024-02-04T06:59:03;16.77;;;6.68;;
59336;SDS011;45115;52.002;4.686;2024-02-04T07:01:31;18.85;;;8.30;;
59336;SDS011;45115;52.002;4.686;2024-02-04T07:03:58;14.27;;;6.95;;
59336;SDS011;45115;52.002;4.686;2024-02-04T07:06:25;19.40;;;8.02;;
59336;SDS011;45115;52.002;4.686;2024-02-04T07:08:51;18.40;;;7.18;;
59336;SDS011;45115;52.002;4.686;2024-02-04T07:11:18;20.23;;;7.53;;
59336;SDS011;45115;52.002;4.686;2024-02-04T07:13:44;16.10;;;7.78;;
59336;SDS011;45115;52.002;4.686;2024-02-04T07:16:11;17.10;;;7.07;;
59336;SDS011;45115;52.002;4.686;2024-02-04T07:18:39;19.77;;;7.10;;
59336;SDS011;45115;52.002;4.686;2024-02-04T07:21:06;17.52;;;6.90;;
59336;SDS011;45115;52.002;4.686;2024-02-04T07:23:32;18.60;;;6.72;;
59336;SDS011;45115;52.002;4.686;2024-02-04T07:25:59;16.48;;;7.05;;
59336;SDS011;45115;52.002;4.686;2024-02-04T07:28:25;19.17;;;7.50;;
59336;SDS011;45115;52.002;4.686;2024-02-04T07:30:52;19.20;;;8.27;;
59336;SDS011;45115;52.002;4.686;2024-02-04T07:33:19;18.77;;;7.68;;
59336;SDS011;45115;52.002;4.686;2024-02-04T07:35:47;17.63;;;7.57;;
59336;SDS011;45115;52.002;4.686;2024-02-04T07:38:13;19.23;;;8.25;;
59336;SDS011;45115;52.002;4.686;2024-02-04T07:40:40;17.08;;;6.70;;
59336;SDS011;45115;52.002;4.686;2024-02-04T07:43:07;19.75;;;6.97;;
59336;SDS011;45115;52.002;4.686;2024-02-04T07:45:34;18.80;;;5.97;;
59336;SDS011;45115;52.002;4.686;2024-02-04T07:48:00;15.32;;;5.95;;
59336;SDS011;45115;52.002;4.686;2024-02-04T07:50:28;18.80;;;6.25;;
59336;SDS011;45115;52.002;4.686;2024-02-04T07:52:56;11.48;;;5.50;;
59336;SDS011;45115;52.002;4.686;2024-02-04T07:55:22;15.90;;;6.07;;
59336;SDS011;45115;52.002;4.686;2024-02-04T07:57:49;14.15;;;5.78;;
59336;SDS011;45115;52.002;4.686;2024-02-04T08:00:16;14.35;;;5.65;;
59336;SDS011;45115;52.002;4.686;2024-02-04T08:02:45;15.15;;;5.80;;
59336;SDS011;45115;52.002;4.686;2024-02-04T08:05:12;17.02;;;5.50;;
59336;SDS011;45115;52.002;4.686;2024-02-04T08:07:39;12.25;;;5.28;;
59336;SDS011;45115;52.002;4.686;2024-02-04T08:10:08;13.93;;;6.38;;
59336;SDS011;45115;52.002;4.686;2024-02-04T08:12:35;14.57;;;5.72;;
59336;SDS011;45115;52.002;4.686;2024-02-04T08:15:01;18.27;;;5.57;;
59336;SDS011;45115;52.002;4.686;2024-02-04T08:17:28;15.57;;;4.30;;
59336;SDS011;45115;52.002;4.686;2024-02-04T08:19:56;17.25;;;4.75;;
59336;SDS011;45115;52.002;4.686;2024-02-04T08:22:23;9.10;;;4.03;;
59336;SDS011;45115;52.002;4.686;2024-02-04T08:24:50;9.43;;;4.18;;
59336;SDS011;45115;52.002;4.686;2024-02-04T08:27:18;11.55;;;3.95;;
59336;SDS011;45115;52.002;4.686;2024-02-04T08:29:44;14.55;;;4.43;;
59336;SDS011;45115;52.002;4.686;2024-02-04T08:32:11;13.48;;;3.65;;
59336;SDS011;45115;52.002;4.686;2024-02-04T08:34:41;11.27;;;3.97;;
59336;SDS011;45115;52.002;4.686;2024-02-04T08:37:08;12.00;;;3.90;;
59336;SDS011;45115;52.002;4.686;2024-02-04T08:39:34;10.75;;;3.80;;
59336;SDS011;45115;52.002;4.686;2024-02-04T08:42:01;9.73;;;3.90;;
59336;SDS011;45115;52.002;4.686;2024-02-04T08:44:29;10.50;;;3.70;;
59336;SDS011;45115;52.002;4.686;2024-02-04T08:46:55;11.32;;;3.70;;
59336;SDS011;45115;52.002;4.686;2024-02-04T08:49:22;8.70;;;3.70;;
59336;SDS011;45115;52.002;4.686;2024-02-04T08:51:49;9.98;;;3.17;;
59336;SDS011;45115;52.002;4.686;2024-02-04T08:54:15;8.60;;;3.03;;
59336;SDS011;45115;52.002;4.686;2024-02-04T08:56:43;5.97;;;2.75;;
59336;SDS011;45115;52.002;4.686;2024-02-04T08:59:10;8.68;;;2.65;;
59336;SDS011;45115;52.002;4.686;2024-02-04T09:01:38;4.75;;;2.47;;
59336;SDS011;45115;52.002;4.686;2024-02-04T09:04:05;11.30;;;3.50;;
59336;SDS011;45115;52.002;4.686;2024-02-04T09:06:32;9.57;;;2.78;;
59336;SDS011;45115;52.002;4.686;2024-02-04T09:09:21;6.85;;;2.67;;
59336;SDS011;45115;52.002;4.686;2024-02-04T09:11:48;9.00;;;3.05;;
59336;SDS011;45115;52.002;4.686;2024-02-04T09:14:14;7.00;;;3.08;;
59336;SDS011;45115;52.002;4.686;2024-02-04T09:16:42;6.65;;;2.80;;
59336;SDS011;45115;52.002;4.686;2024-02-04T09:19:09;6.10;;;2.63;;
59336;SDS011;45115;52.002;4.686;2024-02-04T09:21:36;6.72;;;2.60;;
59336;SDS011;45115;52.002;4.686;2024-02-04T09:24:02;7.90;;;2.40;;
59336;SDS011;45115;52.002;4.686;2024-02-04T09:26:29;5.43;;;2.08;;
59336;SDS011;45115;52.002;4.686;2024-02-04T09:28:56;7.72;;;2.40;;
59336;SDS011;45115;52.002;4.686;2024-02-04T09:31:22;4.57;;;2.33;;
59336;SDS011;45115;52.002;4.686;2024-02-04T09:33:50;7.70;;;2.40;;
59336;SDS011;45115;52.002;4.686;2024-02-04T09:36:17;6.88;;;2.83;;
59336;SDS011;45115;52.002;4.686;2024-02-04T09:38:43;6.53;;;2.20;;
59336;SDS011;45115;52.002;4.686;2024-02-04T09:41:10;5.45;;;2.38;;
59336;SDS011;45115;52.002;4.686;2024-02-04T09:43:37;4.43;;;2.38;;
59336;SDS011;45115;52.002;4.686;2024-02-04T09:46:04;4.95;;;2.00;;
59336;SDS011;45115;52.002;4.686;2024-02-04T09:48:32;4.35;;;1.58;;
59336;SDS011;45115;52.002;4.686;2024-02-04T09:51:00;2.53;;;1.77;;
59336;SDS011;45115;52.002;4.686;2024-02-04T09:53:31;3.80;;;1.67;;
59336;SDS011;45115;52.002;4.686;2024-02-04T09:56:00;4.15;;;2.60;;
59336;SDS011;45115;52.002;4.686;2024-02-04T09:58:28;6.28;;;3.38;;
59336;SDS011;45115;52.002;4.686;2024-02-04T10:00:55;7.50;;;4.55;;
59336;SDS011;45115;52.002;4.686;2024-02-04T10:03:22;9.10;;;4.80;;
59336;SDS011;45115;52.002;4.686;2024-02-04T10:05:49;13.82;;;4.90;;
59336;SDS011;45115;52.002;4.686;2024-02-04T10:08:17;15.45;;;6.07;;
59336;SDS011;45115;52.002;4.686;2024-02-04T10:10:44;16.40;;;5.25;;
59336;SDS011;45115;52.002;4.686;2024-02-04T10:13:11;11.50;;;4.72;;
59336;SDS011;45115;52.002;4.686;2024-02-04T10:15:37;9.15;;;5.00;;
59336;SDS011;45115;52.002;4.686;2024-02-04T10:18:04;13.10;;;5.32;;
59336;SDS011;45115;52.002;4.686;2024-02-04T10:20:32;10.88;;;4.63;;
59336;SDS011;45115;52.002;4.686;2024-02-04T10:22:59;11.73;;;4.88;;
59336;SDS011;45115;52.002;4.686;2024-02-04T10:25:27;12.50;;;3.95;;
59336;SDS011;45115;52.002;4.686;2024-02-04T10:27:54;9.80;;;3.65;;
59336;SDS011;45115;52.002;4.686;2024-02-04T10:30:22;10.35;;;4.15;;
59336;SDS011;45115;52.002;4.686;2024-02-04T10:32:50;11.90;;;3.75;;
59336;SDS011;45115;52.002;4.686;2024-02-04T10:35:17;12.45;;;3.92;;
59336;SDS011;45115;52.002;4.686;2024-02-04T10:37:44;10.30;;;3.28;;
59336;SDS011;45115;52.002;4.686;2024-02-04T10:40:11;7.97;;;3.08;;
59336;SDS011;45115;52.002;4.686;2024-02-04T10:42:39;10.57;;;3.17;;
59336;SDS011;45115;52.002;4.686;2024-02-04T10:45:09;14.60;;;3.47;;
59336;SDS011;45115;52.002;4.686;2024-02-04T10:47:37;12.32;;;3.03;;
59336;SDS011;45115;52.002;4.686;2024-02-04T10:50:05;8.63;;;2.92;;
59336;SDS011;45115;52.002;4.686;2024-02-04T10:52:35;10.57;;;2.80;;
59336;SDS011;45115;52.002;4.686;2024-02-04T10:55:04;7.75;;;2.67;;
59336;SDS011;45115;52.002;4.686;2024-02-04T11:00:02;10.35;;;2.75;;
59336;SDS011;45115;52.002;4.686;2024-02-04T11:02:34;7.38;;;2.90;;
59336;SDS011;45115;52.002;4.686;2024-02-04T11:05:02;7.68;;;2.85;;
59336;SDS011;45115;52.002;4.686;2024-02-04T11:07:30;11.95;;;3.20;;
59336;SDS011;45115;52.002;4.686;2024-02-04T11:09:59;10.18;;;3.30;;
59336;SDS011;45115;52.002;4.686;2024-02-04T11:12:26;12.05;;;3.47;;
59336;SDS011;45115;52.002;4.686;2024-02-04T11:14:56;9.88;;;3.20;;
59336;SDS011;45115;52.002;4.686;2024-02-04T11:17:45;6.72;;;2.78;;
59336;SDS011;45115;52.002;4.686;2024-02-04T11:20:28;9.23;;;3.20;;
59336;SDS011;45115;52.002;4.686;2024-02-04T11:23:22;8.18;;;2.97;;
59336;SDS011;45115;52.002;4.686;2024-02-04T11:26:08;8.70;;;2.78;;
59336;SDS011;45115;52.002;4.686;2024-02-04T11:28:36;7.90;;;2.90;;
59336;SDS011;45115;52.002;4.686;2024-02-04T11:31:04;12.75;;;4.20;;
59336;SDS011;45115;52.002;4.686;2024-02-04T11:33:32;10.20;;;2.90;;
59336;SDS011;45115;52.002;4.686;2024-02-04T11:35:59;9.77;;;3.88;;
59336;SDS011;45115;52.002;4.686;2024-02-04T11:38:29;13.40;;;2.97;;
59336;SDS011;45115;52.002;4.686;2024-02-04T11:40:56;11.00;;;3.15;;
59336;SDS011;45115;52.002;4.686;2024-02-04T11:43:23;7.60;;;2.85;;
59336;SDS011;45115;52.002;4.686;2024-02-04T11:45:51;8.48;;;2.90;;
59336;SDS011;45115;52.002;4.686;2024-02-04T11:48:19;8.25;;;3.00;;
59336;SDS011;45115;52.002;4.686;2024-02-04T11:50:53;8.65;;;2.95;;
59336;SDS011;45115;52.002;4.686;2024-02-04T11:53:20;7.70;;;3.00;;
59336;SDS011;45115;52.002;4.686;2024-02-04T11:55:48;9.73;;;3.40;;
59336;SDS011;45115;52.002;4.686;2024-02-04T11:58:18;8.23;;;3.27;;
59336;SDS011;45115;52.002;4.686;2024-02-04T12:00:45;10.25;;;3.00;;
59336;SDS011;45115;52.002;4.686;2024-02-04T12:03:12;11.35;;;3.15;;
59336;SDS011;45115;52.002;4.686;2024-02-04T12:05:39;11.40;;;2.92;;
59336;SDS011;45115;52.002;4.686;2024-02-04T12:08:07;6.97;;;2.70;;
59336;SDS011;45115;52.002;4.686;2024-02-04T12:10:37;11.40;;;2.65;;
59336;SDS011;45115;52.002;4.686;2024-02-04T12:13:04;6.45;;;2.55;;
59336;SDS011;45115;52.002;4.686;2024-02-04T12:15:32;6.93;;;2.72;;
59336;SDS011;45115;52.002;4.686;2024-02-04T12:18:07;7.25;;;2.60;;
59336;SDS011;45115;52.002;4.686;2024-02-04T12:20:34;8.10;;;3.08;;
59336;SDS011;45115;52.002;4.686;2024-02-04T12:23:02;11.10;;;3.17;;
59336;SDS011;45115;52.002;4.686;2024-02-04T12:25:31;11.75;;;3.28;;
59336;SDS011;45115;52.002;4.686;2024-02-04T12:27:58;15.20;;;4.55;;
59336;SDS011;45115;52.002;4.686;2024-02-04T12:30:28;13.40;;;4.43;;
59336;SDS011;45115;52.002;4.686;2024-02-04T12:32:55;11.57;;;4.03;;
59336;SDS011;45115;52.002;4.686;2024-02-04T12:35:22;10.13;;;3.35;;
59336;SDS011;45115;52.002;4.686;2024-02-04T12:37:50;9.07;;;3.78;;
59336;SDS011;45115;52.002;4.686;2024-02-04T12:40:20;11.60;;;3.42;;
59336;SDS011;45115;52.002;4.686;2024-02-04T12:42:52;9.70;;;3.67;;
59336;SDS011;45115;52.002;4.686;2024-02-04T12:45:20;12.13;;;3.55;;
59336;SDS011;45115;52.002;4.686;2024-02-04T12:47:48;10.38;;;3.60;;
59336;SDS011;45115;52.002;4.686;2024-02-04T12:50:16;8.38;;;3.75;;
59336;SDS011;45115;52.002;4.686;2024-02-04T12:52:43;13.38;;;4.25;;
59336;SDS011;45115;52.002;4.686;2024-02-04T12:55:18;7.85;;;3.28;;
59336;SDS011;45115;52.002;4.686;2024-02-04T12:57:46;13.73;;;3.67;;
59336;SDS011;45115;52.002;4.686;2024-02-04T13:00:17;8.07;;;2.80;;
59336;SDS011;45115;52.002;4.686;2024-02-04T13:02:44;10.18;;;3.35;;
59336;SDS011;45115;52.002;4.686;2024-02-04T13:05:21;9.75;;;3.78;;
59336;SDS011;45115;52.002;4.686;2024-02-04T13:07:51;9.95;;;4.20;;
59336;SDS011;45115;52.002;4.686;2024-02-04T13:10:20;8.80;;;3.30;;
59336;SDS011;45115;52.002;4.686;2024-02-04T13:12:57;10.88;;;3.30;;
59336;SDS011;45115;52.002;4.686;2024-02-04T13:15:26;8.57;;;3.22;;
59336;SDS011;45115;52.002;4.686;2024-02-04T13:17:53;10.00;;;3.47;;
59336;SDS011;45115;52.002;4.686;2024-02-04T13:20:20;8.48;;;3.40;;
59336;SDS011;45115;52.002;4.686;2024-02-04T13:22:47;12.27;;;3.33;;
59336;SDS011;45115;52.002;4.686;2024-02-04T13:25:14;12.45;;;3.10;;
59336;SDS011;45115;52.002;4.686;2024-02-04T13:27:40;11.00;;;4.07;;
59336;SDS011;45115;52.002;4.686;2024-02-04T13:30:07;10.80;;;3.40;;
59336;SDS011;45115;52.002;4.686;2024-02-04T13:32:39;10.00;;;3.28;;
59336;SDS011;45115;52.002;4.686;2024-02-04T13:35:07;10.65;;;3.28;;
59336;SDS011;45115;52.002;4.686;2024-02-04T13:37:35;10.63;;;2.85;;
59336;SDS011;45115;52.002;4.686;2024-02-04T13:40:02;6.22;;;2.72;;
59336;SDS011;45115;52.002;4.686;2024-02-04T13:42:30;7.65;;;2.25;;
59336;SDS011;45115;52.002;4.686;2024-02-04T13:44:57;10.73;;;2.80;;
59336;SDS011;45115;52.002;4.686;2024-02-04T13:47:24;8.65;;;2.60;;
59336;SDS011;45115;52.002;4.686;2024-02-04T13:49:52;10.15;;;3.17;;
59336;SDS011;45115;52.002;4.686;2024-02-04T13:52:19;7.32;;;2.45;;
59336;SDS011;45115;52.002;4.686;2024-02-04T13:54:46;10.48;;;3.00;;
59336;SDS011;45115;52.002;4.686;2024-02-04T13:57:12;10.00;;;3.40;;
59336;SDS011;45115;52.002;4.686;2024-02-04T13:59:39;10.13;;;2.60;;
59336;SDS011;45115;52.002;4.686;2024-02-04T14:02:06;8.15;;;2.65;;
59336;SDS011;45115;52.002;4.686;2024-02-04T14:04:34;8.70;;;2.70;;
59336;SDS011;45115;52.002;4.686;2024-02-04T14:07:02;9.23;;;2.95;;
59336;SDS011;45115;52.002;4.686;2024-02-04T14:09:29;8.93;;;2.90;;
59336;SDS011;45115;52.002;4.686;2024-02-04T14:11:56;7.20;;;2.70;;
59336;SDS011;45115;52.002;4.686;2024-02-04T14:14:23;9.18;;;2.50;;
59336;SDS011;45115;52.002;4.686;2024-02-04T14:16:50;8.93;;;2.78;;
59336;SDS011;45115;52.002;4.686;2024-02-04T14:19:17;11.98;;;3.13;;
59336;SDS011;45115;52.002;4.686;2024-02-04T14:21:43;7.78;;;2.40;;
59336;SDS011;45115;52.002;4.686;2024-02-04T14:24:12;9.95;;;3.33;;
59336;SDS011;45115;52.002;4.686;2024-02-04T14:26:39;8.93;;;2.65;;
59336;SDS011;45115;52.002;4.686;2024-02-04T14:29:06;9.13;;;3.08;;
59336;SDS011;45115;52.002;4.686;2024-02-04T14:31:33;10.38;;;2.83;;
59336;SDS011;45115;52.002;4.686;2024-02-04T14:34:00;9.43;;;2.75;;
59336;SDS011;45115;52.002;4.686;2024-02-04T14:36:26;11.10;;;3.13;;
59336;SDS011;45115;52.002;4.686;2024-02-04T14:38:53;9.52;;;3.60;;
59336;SDS011;45115;52.002;4.686;2024-02-04T14:41:21;8.23;;;2.72;;